Terminal Aerodrome Forecast
Issued by NWS

Home | Current Version | Previous Version | Text Only | Print | Product List | Glossary Off
Versions: 1 2 3 4 5 6 7 8 9 10 11 12 13 14 15 16 17

000
FTUS45 KGGW 231100
TAFSDY
TAF
KSDY 231129Z 2312/2412 VRB05KT P6SM BKN100
     FM231400 13008KT P6SM VCSH SCT050 OVC080
     FM231900 14008KT P6SM BKN090
     FM240000 VRB05KT P6SM SCT170
      AMD LTD TO CLD VIS AND WIND=

USA.gov is the U.S. government's official web portal to all federal, state and local government web resources and services.